createdAt,value
2023-04-12T00:01:36.156Z,99.90
2023-04-12T00:04:07.152Z,99.90
2023-04-12T00:06:36.900Z,99.90
2023-04-12T00:09:06.245Z,99.90
2023-04-12T00:11:35.647Z,99.90
2023-04-12T00:14:05.071Z,99.90
2023-04-12T00:16:34.426Z,99.90
2023-04-12T00:19:04.737Z,99.90
2023-04-12T00:21:35.820Z,99.90
2023-04-12T00:24:04.862Z,99.90
2023-04-12T00:26:33.753Z,99.90
2023-04-12T00:29:03.230Z,99.90
2023-04-12T00:31:32.730Z,99.90
2023-04-12T00:34:04.954Z,99.90
2023-04-12T00:36:35.690Z,99.90
2023-04-12T00:39:05.130Z,99.90
2023-04-12T00:41:34.354Z,99.90
2023-04-12T00:44:03.824Z,99.90
2023-04-12T00:46:36.132Z,99.90
2023-04-12T00:49:05.421Z,99.90
2023-04-12T00:51:38.356Z,99.90
2023-04-12T00:54:09.254Z,99.90
2023-04-12T00:56:40.749Z,99.90
2023-04-12T00:59:09.801Z,99.90
2023-04-12T01:01:41.817Z,99.90
2023-04-12T01:04:14.416Z,99.90
2023-04-12T01:06:58.070Z,99.90
2023-04-12T01:09:36.579Z,99.90
2023-04-12T01:12:16.686Z,99.90
2023-04-12T01:14:56.825Z,99.90
2023-04-12T01:17:31.222Z,99.90
2023-04-12T01:20:13.922Z,99.90
2023-04-12T01:23:24.341Z,99.90
2023-04-12T01:26:11.178Z,99.90
2023-04-12T01:28:45.473Z,99.90
2023-04-12T01:31:16.270Z,99.90
2023-04-12T01:33:47.936Z,99.90
2023-04-12T01:36:23.851Z,99.90
2023-04-12T01:38:53.761Z,99.90
2023-04-12T01:41:23.144Z,99.90
2023-04-12T01:43:53.960Z,99.90
2023-04-12T01:46:26.627Z,99.90
2023-04-12T01:48:56.142Z,99.90
2023-04-12T01:51:45.120Z,99.90
2023-04-12T01:54:19.314Z,99.90
2023-04-12T01:56:52.153Z,99.90
2023-04-12T01:59:24.719Z,99.90
2023-04-12T02:01:53.831Z,99.90
2023-04-12T02:04:25.826Z,99.90
2023-04-12T02:06:57.655Z,99.90
2023-04-12T02:09:26.460Z,99.90
2023-04-12T02:11:55.853Z,99.90
2023-04-12T02:14:27.712Z,99.90
2023-04-12T02:16:58.898Z,99.90
2023-04-12T02:19:29.211Z,99.90
2023-04-12T02:21:58.543Z,99.90
2023-04-12T02:24:27.836Z,99.90
2023-04-12T02:26:57.139Z,99.90
2023-04-12T02:29:27.979Z,99.90
2023-04-12T02:31:57.208Z,99.90
2023-04-12T02:34:34.689Z,99.90
2023-04-12T02:37:18.244Z,99.90
2023-04-12T02:39:47.272Z,99.90
2023-04-12T02:42:17.758Z,99.90
2023-04-12T02:44:52.244Z,99.90
2023-04-12T02:47:21.782Z,99.90
2023-04-12T02:49:52.690Z,99.90
2023-04-12T02:52:24.731Z,99.90
2023-04-12T02:55:05.130Z,99.90
2023-04-12T02:57:34.425Z,99.90
2023-04-12T03:00:12.231Z,99.90
2023-04-12T03:03:01.958Z,99.90
2023-04-12T03:05:33.040Z,99.90
2023-04-12T03:08:02.938Z,99.90
2023-04-12T03:10:42.472Z,99.90
2023-04-12T03:13:12.280Z,99.90
2023-04-12T03:15:48.492Z,99.90
2023-04-12T03:18:21.376Z,99.90
2023-04-12T03:20:53.468Z,99.90
2023-04-12T03:23:22.806Z,99.90
2023-04-12T03:26:01.585Z,99.90
2023-04-12T03:28:37.446Z,99.90
2023-04-12T03:31:11.231Z,99.90
2023-04-12T03:33:43.698Z,99.90
2023-04-12T03:36:23.664Z,99.90
2023-04-12T03:39:01.541Z,99.90
2023-04-12T03:41:33.057Z,99.90
2023-04-12T03:44:06.098Z,99.90
2023-04-12T03:46:38.742Z,99.90
2023-04-12T03:49:13.378Z,99.90
2023-04-12T03:51:44.347Z,99.90
2023-04-12T03:54:14.444Z,99.90
2023-04-12T03:57:05.886Z,99.90
2023-04-12T03:59:45.641Z,99.90
2023-04-12T04:02:17.728Z,99.90
2023-04-12T04:04:50.259Z,99.90
2023-04-12T04:07:27.898Z,99.90
2023-04-12T04:09:58.736Z,99.90
2023-04-12T04:12:32.506Z,99.90
2023-04-12T04:15:01.776Z,99.90
2023-04-12T04:17:35.449Z,99.90
2023-04-12T04:20:08.909Z,99.90
2023-04-12T04:22:40.923Z,99.90
2023-04-12T04:25:14.450Z,99.90
2023-04-12T04:27:46.463Z,99.90
2023-04-12T04:30:17.343Z,99.90
2023-04-12T04:32:50.576Z,99.90
2023-04-12T04:35:24.541Z,99.90
2023-04-12T04:38:08.747Z,99.90
2023-04-12T04:40:39.953Z,99.90
2023-04-12T04:43:14.318Z,99.90
2023-04-12T04:45:46.823Z,99.90
2023-04-12T04:48:19.355Z,99.90
2023-04-12T04:50:48.193Z,99.90
2023-04-12T04:53:20.856Z,99.90
2023-04-12T04:55:51.501Z,99.90
2023-04-12T04:58:20.596Z,99.90
2023-04-12T05:00:50.503Z,99.90
2023-04-12T05:03:21.862Z,99.90
2023-04-12T05:05:51.269Z,99.90
2023-04-12T05:08:21.868Z,99.90
2023-04-12T05:10:53.557Z,99.90
2023-04-12T05:13:25.494Z,99.90
2023-04-12T05:15:54.755Z,99.90
2023-04-12T05:18:26.250Z,99.90
2023-04-12T05:20:56.094Z,99.90
2023-04-12T05:23:24.863Z,99.90
2023-04-12T05:25:54.969Z,99.90
2023-04-12T05:28:25.277Z,99.90
2023-04-12T05:30:55.299Z,99.90
2023-04-12T05:33:33.436Z,99.90
2023-04-12T05:36:04.244Z,99.90
2023-04-12T05:38:33.974Z,99.90
2023-04-12T05:41:07.687Z,99.90
2023-04-12T05:43:38.076Z,99.90
2023-04-12T05:46:09.482Z,99.90
2023-04-12T05:48:41.078Z,99.90
2023-04-12T05:51:11.990Z,99.90
2023-04-12T05:53:41.727Z,99.90
2023-04-12T05:56:11.990Z,99.90
2023-04-12T05:58:41.352Z,99.90
2023-04-12T06:01:13.864Z,99.90
2023-04-12T06:03:45.474Z,99.90
2023-04-12T06:06:15.956Z,99.90
2023-04-12T06:08:45.584Z,99.90
2023-04-12T06:11:16.825Z,99.90
2023-04-12T06:13:46.861Z,99.90
2023-04-12T06:16:16.879Z,99.90
2023-04-12T06:18:48.062Z,99.90
2023-04-12T06:21:17.441Z,99.90
2023-04-12T06:23:46.880Z,99.90
2023-04-12T06:26:17.962Z,99.90
2023-04-12T06:28:47.661Z,99.90
2023-04-12T06:31:18.696Z,99.90
2023-04-12T06:33:50.640Z,99.90
2023-04-12T06:36:21.187Z,99.90
2023-04-12T06:38:51.951Z,99.90
2023-04-12T06:41:21.440Z,99.90
2023-04-12T06:44:00.923Z,99.90
2023-04-12T06:46:31.029Z,99.90
2023-04-12T06:49:02.007Z,99.90
2023-04-12T06:51:31.703Z,99.90
2023-04-12T06:54:01.012Z,99.90
2023-04-12T06:56:30.004Z,99.90
2023-04-12T06:59:00.141Z,99.90
2023-04-12T07:01:29.615Z,99.90
2023-04-12T07:03:59.168Z,99.90
2023-04-12T07:06:30.248Z,99.90
2023-04-12T07:08:59.663Z,99.90
2023-04-12T07:11:30.054Z,99.90
2023-04-12T07:14:00.682Z,99.90
2023-04-12T07:16:32.950Z,99.90
2023-04-12T07:19:02.429Z,99.90
2023-04-12T07:21:33.118Z,99.90
2023-04-12T07:24:03.603Z,99.90
2023-04-12T07:26:32.749Z,99.90
2023-04-12T07:29:02.337Z,99.90
2023-04-12T07:31:32.086Z,99.90
2023-04-12T07:34:01.450Z,99.90
2023-04-12T07:36:32.348Z,99.90
2023-04-12T07:39:01.466Z,99.90
2023-04-12T07:41:30.716Z,99.90
2023-04-12T07:44:00.418Z,99.90
2023-04-12T07:46:29.670Z,99.90
2023-04-12T07:48:58.765Z,99.90
2023-04-12T07:51:29.381Z,99.90
2023-04-12T07:53:59.960Z,99.90
2023-04-12T07:56:29.245Z,99.90
2023-04-12T07:58:58.792Z,99.90
2023-04-12T08:01:28.115Z,99.90
2023-04-12T08:03:57.786Z,99.90
2023-04-12T08:06:30.473Z,99.90
2023-04-12T08:09:01.852Z,99.90
2023-04-12T08:11:31.078Z,99.90
2023-04-12T08:14:00.142Z,99.90
2023-04-12T08:16:28.840Z,99.90
2023-04-12T08:18:59.088Z,99.90
2023-04-12T08:21:30.411Z,99.90
2023-04-12T08:24:00.992Z,99.90
2023-04-12T08:26:30.620Z,99.90
2023-04-12T08:28:59.937Z,99.90
2023-04-12T08:31:30.345Z,99.90
2023-04-12T08:34:00.250Z,99.90
2023-04-12T08:36:29.799Z,99.90
2023-04-12T08:39:02.950Z,99.90
2023-04-12T08:41:32.591Z,99.90
2023-04-12T08:44:02.174Z,94.30
2023-04-12T08:46:31.981Z,90.30
2023-04-12T08:49:01.359Z,92.80
2023-04-12T08:51:30.728Z,91.70
2023-04-12T08:54:01.652Z,92.20
2023-04-12T08:56:33.359Z,91.40
2023-04-12T08:59:03.278Z,92.60
2023-04-12T09:01:34.685Z,93.20
2023-04-12T09:04:09.839Z,92.80
2023-04-12T09:06:39.615Z,97.00
2023-04-12T09:09:10.121Z,99.40
2023-04-12T09:11:39.091Z,96.70
2023-04-12T09:14:23.320Z,95.50
2023-04-12T09:16:53.816Z,92.50
2023-04-12T09:19:34.876Z,91.80
2023-04-12T09:22:04.882Z,89.90
2023-04-12T09:24:48.976Z,87.80
2023-04-12T09:27:21.334Z,78.30
2023-04-12T09:29:53.371Z,77.10
2023-04-12T09:32:28.734Z,71.20
2023-04-12T09:34:59.069Z,77.40
2023-04-12T09:37:28.415Z,67.40
2023-04-12T09:40:05.175Z,67.50
2023-04-12T09:42:36.098Z,73.30
2023-04-12T09:45:22.798Z,77.80
2023-04-12T09:47:55.066Z,81.30
2023-04-12T09:50:26.066Z,86.60
2023-04-12T09:52:55.660Z,87.50
2023-04-12T09:55:28.547Z,86.40
2023-04-12T09:57:58.086Z,89.00
2023-04-12T10:00:28.521Z,84.80
2023-04-12T10:02:58.027Z,69.80
2023-04-12T10:05:28.289Z,54.30
2023-04-12T10:08:00.312Z,51.70
2023-04-12T10:10:34.316Z,52.10
2023-04-12T10:13:03.848Z,54.90
2023-04-12T10:15:36.444Z,60.10
2023-04-12T10:18:10.345Z,62.80
2023-04-12T10:20:42.279Z,59.40
2023-04-12T10:23:16.164Z,66.70
2023-04-12T10:25:49.940Z,60.20
2023-04-12T10:28:21.986Z,53.50
2023-04-12T10:30:52.952Z,54.60
2023-04-12T10:33:28.221Z,52.30
2023-04-12T10:36:00.854Z,46.10
2023-04-12T10:38:35.867Z,47.70
2023-04-12T10:41:31.069Z,49.10
2023-04-12T10:44:28.211Z,48.00
2023-04-12T10:46:57.815Z,49.80
2023-04-12T10:49:28.302Z,47.80
2023-04-12T10:52:16.558Z,49.10
2023-04-12T10:54:46.200Z,46.50
2023-04-12T10:57:45.738Z,47.30
2023-04-12T11:00:16.516Z,45.10
2023-04-12T11:03:13.002Z,44.90
2023-04-12T11:06:12.610Z,48.30
2023-04-12T11:09:08.312Z,45.80
2023-04-12T11:11:44.464Z,42.30
2023-04-12T11:14:16.531Z,46.00
2023-04-12T11:17:24.339Z,45.70
2023-04-12T11:19:56.767Z,47.80
2023-04-12T11:22:29.449Z,46.80
2023-04-12T11:25:00.474Z,54.20
2023-04-12T11:27:32.516Z,47.40
2023-04-12T11:30:04.124Z,45.90
2023-04-12T11:32:36.559Z,39.00
2023-04-12T11:35:06.568Z,39.30
2023-04-12T11:37:37.808Z,43.90
2023-04-12T11:40:08.141Z,41.60
2023-04-12T11:42:37.477Z,38.90
2023-04-12T11:45:16.982Z,41.70
2023-04-12T11:47:48.135Z,49.80
2023-04-12T11:50:32.645Z,48.20
2023-04-12T11:53:20.221Z,43.50
2023-04-12T11:55:50.969Z,40.30
2023-04-12T11:58:24.756Z,45.60
2023-04-12T12:00:57.237Z,55.50
2023-04-12T12:03:28.213Z,49.10
2023-04-12T12:05:58.183Z,51.60
2023-04-12T12:08:28.013Z,46.30
2023-04-12T12:11:07.364Z,45.70
2023-04-12T12:13:49.446Z,44.00
2023-04-12T12:16:27.600Z,44.80
2023-04-12T12:18:57.156Z,43.20
2023-04-12T12:21:28.905Z,43.60
2023-04-12T12:23:58.985Z,41.80
2023-04-12T12:26:30.972Z,47.10
2023-04-12T12:29:02.098Z,40.70
2023-04-12T12:31:33.990Z,37.80
2023-04-12T12:34:05.889Z,39.50
2023-04-12T12:36:39.213Z,41.80
2023-04-12T12:39:11.167Z,41.60
2023-04-12T12:41:40.787Z,42.20
2023-04-12T12:44:11.507Z,41.70
2023-04-12T12:49:14.400Z,41.20
2023-04-12T12:51:44.146Z,48.30
2023-04-12T12:54:14.314Z,55.80
2023-04-12T12:56:47.799Z,51.00
2023-04-12T12:59:16.357Z,51.20
2023-04-12T13:01:49.397Z,58.30
2023-04-12T13:04:20.373Z,58.50
2023-04-12T13:06:49.597Z,59.40
2023-04-12T13:09:18.485Z,54.00
2023-04-12T13:11:48.836Z,47.50
2023-04-12T13:14:18.137Z,45.30
2023-04-12T13:16:49.789Z,42.90
2023-04-12T13:19:19.314Z,47.80
2023-04-12T13:21:50.489Z,48.20
2023-04-12T13:24:20.238Z,46.20
2023-04-12T13:26:49.512Z,43.20
2023-04-12T13:29:18.766Z,41.00
2023-04-12T13:31:49.410Z,43.50
2023-04-12T13:34:18.875Z,42.10
2023-04-12T13:36:48.549Z,41.40
2023-04-12T13:39:17.997Z,42.20
2023-04-12T13:41:47.069Z,44.90
2023-04-12T13:44:17.054Z,41.80
2023-04-12T13:46:46.399Z,42.30
2023-04-12T13:49:18.175Z,40.20
2023-04-12T13:51:49.530Z,46.10
2023-04-12T13:54:18.573Z,43.80
2023-04-12T13:56:48.064Z,42.60
2023-04-12T13:59:16.781Z,43.80
2023-04-12T14:01:45.884Z,42.60
2023-04-12T14:04:16.435Z,43.60
2023-04-12T14:06:46.888Z,43.90
2023-04-12T14:09:26.356Z,44.00
2023-04-12T14:11:56.542Z,46.10
2023-04-12T14:14:26.823Z,46.00
2023-04-12T14:16:57.718Z,46.10
2023-04-12T14:19:28.629Z,46.30
2023-04-12T14:21:57.536Z,46.80
2023-04-12T14:24:27.575Z,48.30
2023-04-12T14:26:57.902Z,51.80
2023-04-12T14:29:27.708Z,47.20
2023-04-12T14:31:58.084Z,48.20
2023-04-12T14:34:28.782Z,47.40
2023-04-12T14:36:58.463Z,49.30
2023-04-12T14:39:29.856Z,53.10
2023-04-12T14:41:58.717Z,53.40
2023-04-12T14:44:27.847Z,50.80
2023-04-12T14:46:56.903Z,53.00
2023-04-12T14:49:26.008Z,50.80
2023-04-12T14:51:57.961Z,50.70
2023-04-12T14:54:27.774Z,46.30
2023-04-12T14:56:57.158Z,46.60
2023-04-12T14:59:27.831Z,47.00
2023-04-12T15:01:57.142Z,47.40
2023-04-12T15:04:26.431Z,51.00
2023-04-12T15:06:57.030Z,52.40
2023-04-12T15:09:27.890Z,54.30
2023-04-12T15:12:01.767Z,55.60
2023-04-12T15:14:30.975Z,55.60
2023-04-12T15:16:59.625Z,55.30
2023-04-12T15:19:28.942Z,58.20
2023-04-12T15:22:00.637Z,58.40
2023-04-12T15:24:31.391Z,58.40
2023-04-12T15:27:03.288Z,59.60
2023-04-12T15:29:34.052Z,58.70
2023-04-12T15:32:06.737Z,58.20
2023-04-12T15:34:39.082Z,61.40
2023-04-12T15:37:11.466Z,62.30
2023-04-12T15:39:41.948Z,61.80
2023-04-12T15:42:12.075Z,62.80
2023-04-12T15:44:43.740Z,61.10
2023-04-12T15:47:13.094Z,61.80
2023-04-12T15:49:42.436Z,60.40
2023-04-12T15:52:13.486Z,61.50
2023-04-12T15:54:44.745Z,60.90
2023-04-12T15:57:15.576Z,62.70
2023-04-12T15:59:47.391Z,65.30
2023-04-12T16:02:16.819Z,63.60
2023-04-12T16:04:46.288Z,64.10
2023-04-12T16:07:19.435Z,64.90
2023-04-12T16:09:50.278Z,64.90
2023-04-12T16:12:19.649Z,65.20
2023-04-12T16:14:52.489Z,64.80
2023-04-12T16:17:22.540Z,66.00
2023-04-12T16:19:52.442Z,65.80
2023-04-12T16:22:24.320Z,63.70
2023-04-12T16:24:55.306Z,63.50
2023-04-12T16:27:26.559Z,65.70
2023-04-12T16:29:56.403Z,67.00
2023-04-12T16:32:25.736Z,66.80
2023-04-12T16:34:58.228Z,66.70
2023-04-12T16:37:31.228Z,66.30
2023-04-12T16:40:00.866Z,67.70
2023-04-12T16:42:32.383Z,66.70
2023-04-12T16:45:02.368Z,66.60
2023-04-12T16:47:31.395Z,66.30
2023-04-12T16:50:01.060Z,66.10
2023-04-12T16:52:32.207Z,68.20
2023-04-12T16:55:02.363Z,69.30
2023-04-12T16:57:33.275Z,69.50
2023-04-12T17:00:14.946Z,71.00
2023-04-12T17:02:44.440Z,72.10
2023-04-12T17:05:20.020Z,73.40
2023-04-12T17:07:54.505Z,74.50
2023-04-12T17:10:26.228Z,76.00
2023-04-12T17:12:57.773Z,77.40
2023-04-12T17:15:29.016Z,78.30
2023-04-12T17:18:03.767Z,79.20
2023-04-12T17:20:33.762Z,79.90
2023-04-12T17:23:05.723Z,81.10
2023-04-12T17:25:35.795Z,82.10
2023-04-12T17:28:04.634Z,84.20
2023-04-12T17:30:34.464Z,85.70
2023-04-12T17:33:03.868Z,86.30
2023-04-12T17:35:37.378Z,86.30
2023-04-12T17:38:08.942Z,87.80
2023-04-12T17:40:38.832Z,89.30
2023-04-12T17:43:08.594Z,90.30
2023-04-12T17:45:38.650Z,90.80
2023-04-12T17:48:11.245Z,91.80
2023-04-12T17:50:41.591Z,92.80
2023-04-12T17:53:12.340Z,93.50
2023-04-12T17:55:42.374Z,94.30
2023-04-12T17:58:11.727Z,95.60
2023-04-12T18:00:43.668Z,96.90
2023-04-12T18:03:13.553Z,98.40
2023-04-12T18:05:43.791Z,98.80
2023-04-12T18:08:15.499Z,99.70
2023-04-12T18:10:45.910Z,99.90
2023-04-12T18:13:15.083Z,99.90
2023-04-12T18:15:44.294Z,99.90
2023-04-12T18:18:13.266Z,99.90
2023-04-12T18:20:42.425Z,99.90
2023-04-12T18:23:11.996Z,99.90
2023-04-12T18:25:43.470Z,99.90
2023-04-12T18:28:12.954Z,99.90
2023-04-12T18:30:42.291Z,99.90
2023-04-12T18:33:11.663Z,99.90
2023-04-12T18:35:41.506Z,99.90
2023-04-12T18:38:11.218Z,99.90
2023-04-12T18:40:42.315Z,99.90
2023-04-12T18:43:11.918Z,99.90
2023-04-12T18:45:41.959Z,99.90
2023-04-12T18:48:11.811Z,99.90
2023-04-12T18:50:41.472Z,99.90
2023-04-12T18:53:12.007Z,99.90
2023-04-12T18:55:43.038Z,99.90
2023-04-12T18:58:12.685Z,99.90
2023-04-12T19:00:43.147Z,99.90
2023-04-12T19:03:12.700Z,99.90
2023-04-12T19:05:42.766Z,99.90
2023-04-12T19:08:12.547Z,99.90
2023-04-12T19:10:44.720Z,99.90
2023-04-12T19:13:15.105Z,99.90
2023-04-12T19:15:44.511Z,99.90
2023-04-12T19:18:15.680Z,99.90
2023-04-12T19:20:46.369Z,99.90
2023-04-12T19:23:15.771Z,99.90
2023-04-12T19:25:48.153Z,99.90
2023-04-12T19:28:17.865Z,99.90
2023-04-12T19:30:47.235Z,99.90
2023-04-12T19:33:19.130Z,99.90
2023-04-12T19:35:48.830Z,99.90
2023-04-12T19:38:20.512Z,99.90
2023-04-12T19:40:52.074Z,99.90
2023-04-12T19:43:21.261Z,99.90
2023-04-12T19:45:50.650Z,99.90
2023-04-12T19:48:20.314Z,99.90
2023-04-12T19:50:49.446Z,99.90
2023-04-12T19:53:19.152Z,99.90
2023-04-12T19:55:48.097Z,99.90
2023-04-12T19:58:19.523Z,99.90
2023-04-12T20:00:55.382Z,99.90
2023-04-12T20:03:25.031Z,99.90
2023-04-12T20:05:54.625Z,99.90
2023-04-12T20:08:23.792Z,99.90
2023-04-12T20:10:53.595Z,99.90
2023-04-12T20:13:24.691Z,99.90
2023-04-12T20:15:55.118Z,99.90
2023-04-12T20:18:25.135Z,99.90
2023-04-12T20:20:54.053Z,99.90
2023-04-12T20:23:23.692Z,99.90
2023-04-12T20:25:53.437Z,99.90
2023-04-12T20:28:24.452Z,99.90
2023-04-12T20:30:54.327Z,99.90
2023-04-12T20:33:23.500Z,99.90
2023-04-12T20:35:52.759Z,99.90
2023-04-12T20:38:22.004Z,99.90
2023-04-12T20:40:51.791Z,99.90
2023-04-12T20:43:21.910Z,99.90
2023-04-12T20:45:52.754Z,99.90
2023-04-12T20:48:22.830Z,99.90
2023-04-12T20:50:52.090Z,99.90
2023-04-12T20:53:21.787Z,99.90
2023-04-12T20:55:50.676Z,99.90
2023-04-12T20:58:20.197Z,99.90
2023-04-12T21:00:49.712Z,99.90
2023-04-12T21:03:20.708Z,99.90
2023-04-12T21:05:50.968Z,99.90
2023-04-12T21:08:20.489Z,99.90
2023-04-12T21:10:50.148Z,99.90
2023-04-12T21:13:22.509Z,99.90
2023-04-12T21:15:53.171Z,99.90
2023-04-12T21:18:24.162Z,99.90
2023-04-12T21:20:54.945Z,99.90
2023-04-12T21:23:24.254Z,99.90
2023-04-12T21:25:53.300Z,99.90
2023-04-12T21:28:23.584Z,99.90
2023-04-12T21:30:55.358Z,99.90
2023-04-12T21:33:26.689Z,99.90
2023-04-12T21:35:56.910Z,99.90
2023-04-12T21:38:26.762Z,99.90
2023-04-12T21:40:57.746Z,99.90
2023-04-12T21:43:29.149Z,99.90
2023-04-12T21:45:59.337Z,99.90
2023-04-12T21:48:30.190Z,99.90
2023-04-12T21:50:59.859Z,99.90
2023-04-12T21:53:29.355Z,99.90
2023-04-12T21:55:59.450Z,99.90
2023-04-12T21:58:30.214Z,99.90
2023-04-12T22:00:59.662Z,99.90
2023-04-12T22:03:30.631Z,99.90
2023-04-12T22:06:04.797Z,99.90
2023-04-12T22:08:34.612Z,99.90
2023-04-12T22:11:03.613Z,99.90
2023-04-12T22:13:32.732Z,99.90
2023-04-12T22:16:02.749Z,99.90
2023-04-12T22:18:33.119Z,99.90
2023-04-12T22:21:04.471Z,99.90
2023-04-12T22:23:33.471Z,99.90
2023-04-12T22:26:02.322Z,99.90
2023-04-12T22:28:31.423Z,99.90
2023-04-12T22:31:01.169Z,99.90
2023-04-12T22:33:30.958Z,99.90
2023-04-12T22:36:02.576Z,99.90
2023-04-12T22:38:31.961Z,99.90
2023-04-12T22:41:02.598Z,99.90
2023-04-12T22:43:34.596Z,99.90
2023-04-12T22:46:05.350Z,99.90
2023-04-12T22:48:34.488Z,99.90
2023-04-12T22:51:04.767Z,99.90
2023-04-12T22:53:34.941Z,99.90
2023-04-12T22:56:04.036Z,99.90
2023-04-12T22:58:33.041Z,99.90
2023-04-12T23:01:02.381Z,99.90
2023-04-12T23:03:32.006Z,99.90
2023-04-12T23:06:00.987Z,99.90
2023-04-12T23:08:31.336Z,99.90
2023-04-12T23:11:02.793Z,99.90
2023-04-12T23:13:33.992Z,99.90
2023-04-12T23:16:04.044Z,99.90
2023-04-12T23:18:33.000Z,99.90
2023-04-12T23:21:02.314Z,99.90
2023-04-12T23:23:32.712Z,99.90
2023-04-12T23:26:01.458Z,99.90
2023-04-12T23:28:31.507Z,99.90
2023-04-12T23:31:02.374Z,99.90
2023-04-12T23:33:31.392Z,99.90
2023-04-12T23:36:03.481Z,99.90
2023-04-12T23:38:35.185Z,99.90
2023-04-12T23:41:04.874Z,99.90
2023-04-12T23:43:35.977Z,99.90
2023-04-12T23:46:05.542Z,99.90
2023-04-12T23:48:34.697Z,99.90
2023-04-12T23:51:03.412Z,99.90
2023-04-12T23:53:33.548Z,99.90
2023-04-12T23:56:02.758Z,99.90
2023-04-12T23:58:31.885Z,99.90
